עמוד ראשי
METAR-TAF:

METAR-TAF

שדות תעופה :

Marsa Alam, מצרים

קו רוחב: 25-33-25N, קו אורך: 34-35-01E, גובה: 77מטר

תצפית מזג אוויר נוכחית

הדו"ח נערך לפני 1 שעות ו 29דקות, בשעה 19:00 UTC
רוח 6קשר מכיוון מערב/צפון-מערב
טמפרטורת 34 צלסיוס
לחות 18%
לחץ 1005 hPa
ראות 10 קילומטר או יותר
ללא עננים שבסיסם נמוך מ 5000 רגל או קומולונימבוס

METAR: HEMA 131900Z 30006KT CAVOK 34/06 Q1005 NOSIG

זמן: 22:29 (20:29 UTC)

תחזית

הדו"ח נערך לפני 3 שעות ו 29דקות, בשעה 17:00 UTC
תחזית בתוקף מ 13 ב 18 UTC עד 14 ב 24 UTC
רוח 12קשר מכיוון צפון-מערב
ראות 10 קילומטר או יותר
ללא עננים שבסיסם נמוך מ 5000 רגל או קומולונימבוס

TAF: HEMA 131700Z 1318/1424 31012KT CAVOK

תצפיות ותחזיות מזג אוויר לגבי יותר מ- 4,000 שדות תעופה ברחבי העולם. דוחות METAR ו- TAF.

התחנות הזמינות מסומנות בנקודות צהובות ואדומות על גבי המפה.

העבר את העכבר לנקודה הצבעונית על מנת לראות את שם התחנה.

לאחר מכן, לחץ כדי לראות את תוכן ואת תחזיות מזג האוויר.

כדי לשנות את המפה: לחץ על הכפתורים הירוקים עם הפלוס השחור כדי להתקרב; על הכפתור הירוק עם המקף כדי להתרחק; או בחיצים הירוקים למפות סמוכות.


METAR-TAF: